createdAt,value
2019-04-21T00:01:06.702Z,35.92
2019-04-21T00:06:25.073Z,35.94
2019-04-21T00:11:29.817Z,39.13
2019-04-21T00:16:17.189Z,37.72
2019-04-21T00:21:26.574Z,39.78
2019-04-21T00:26:40.215Z,39.68
2019-04-21T00:31:38.140Z,39.43
2019-04-21T00:36:40.600Z,37.57
2019-04-21T00:41:54.690Z,38.89
2019-04-21T00:46:53.216Z,37.87
2019-04-21T00:52:42.643Z,37.50
2019-04-21T00:57:32.387Z,38.03
2019-04-21T01:02:41.621Z,37.39
2019-04-21T01:07:39.815Z,37.72
2019-04-21T01:12:41.834Z,37.61
2019-04-21T01:17:50.497Z,37.63
2019-04-21T01:22:28.125Z,38.68
2019-04-21T01:27:50.735Z,37.75
2019-04-21T01:32:55.762Z,39.06
2019-04-21T01:38:00.131Z,39.00
2019-04-21T01:43:02.833Z,39.52
2019-04-21T01:48:19.602Z,40.36
2019-04-21T01:53:38.208Z,38.53
2019-04-21T01:58:39.819Z,40.80
2019-04-21T02:08:53.213Z,38.76
2019-04-21T02:14:03.907Z,39.56
2019-04-21T02:18:58.870Z,39.57
2019-04-21T02:24:15.274Z,39.81
2019-04-21T02:29:17.101Z,39.33
2019-04-21T02:34:23.532Z,40.82
2019-04-21T02:44:37.439Z,41.91
2019-04-21T02:54:55.179Z,41.77
2019-04-21T03:00:00.135Z,41.67
2019-04-21T03:05:17.757Z,42.67
2019-04-21T03:10:10.761Z,45.84
2019-04-21T03:25:36.908Z,45.09
2019-04-21T03:30:55.926Z,45.33
2019-04-21T03:40:32.917Z,45.98
2019-04-21T03:45:44.355Z,46.93
2019-04-21T03:50:42.801Z,47.91
2019-04-21T04:01:00.459Z,48.37
2019-04-21T04:06:08.032Z,48.88
2019-04-21T04:11:12.766Z,49.79
2019-04-21T04:26:13.348Z,50.08
2019-04-21T04:36:33.860Z,50.89
2019-04-21T04:41:35.028Z,49.86
2019-04-21T04:46:35.378Z,50.24
2019-04-21T04:51:43.858Z,50.14
2019-04-21T04:56:40.824Z,49.12
2019-04-21T05:01:51.481Z,50.01
2019-04-21T05:11:50.843Z,49.83
2019-04-21T05:16:55.511Z,50.78
2019-04-21T05:21:59.960Z,50.36
2019-04-21T05:26:49.330Z,51.08
2019-04-21T05:32:04.970Z,50.30
2019-04-21T05:37:14.146Z,49.87
2019-04-21T05:42:04.456Z,49.85
2019-04-21T05:52:22.570Z,49.15
2019-04-21T05:57:35.992Z,48.91
2019-04-21T06:02:36.916Z,48.25
2019-04-21T06:07:39.460Z,47.25
2019-04-21T06:12:50.376Z,47.35
2019-04-21T06:17:49.310Z,47.04
2019-04-21T06:22:56.641Z,45.24
2019-04-21T06:28:00.104Z,45.07
2019-04-21T06:33:20.464Z,46.97
2019-04-21T06:38:03.644Z,45.24
2019-04-21T06:43:18.418Z,44.49
2019-04-21T06:48:12.238Z,43.96
2019-04-21T06:53:20.692Z,47.66
2019-04-21T06:58:18.374Z,44.89
2019-04-21T07:03:34.739Z,44.80
2019-04-21T07:08:35.298Z,44.59
2019-04-21T07:13:34.547Z,44.19
2019-04-21T07:18:47.436Z,44.36
2019-04-21T07:23:47.281Z,42.28
2019-04-21T07:28:49.887Z,44.29
2019-04-21T07:33:57.599Z,43.23
2019-04-21T07:38:50.386Z,41.89
2019-04-21T07:43:57.278Z,44.14
2019-04-21T07:49:07.924Z,42.31
2019-04-21T07:54:17.267Z,42.77
2019-04-21T07:59:23.953Z,42.09
2019-04-21T08:04:38.010Z,40.21
2019-04-21T08:09:29.462Z,41.12
2019-04-21T08:14:30.002Z,39.99
2019-04-21T08:19:31.044Z,40.32
2019-04-21T08:24:35.225Z,40.93
2019-04-21T08:34:55.185Z,42.39
2019-04-21T08:39:58.090Z,40.31
2019-04-21T08:44:52.657Z,40.52
2019-04-21T08:49:54.107Z,40.36
2019-04-21T08:55:22.348Z,41.91
2019-04-21T09:00:45.511Z,38.83
2019-04-21T09:05:45.560Z,41.32
2019-04-21T09:10:48.536Z,39.30
2019-04-21T09:15:47.887Z,41.22
2019-04-21T09:20:58.458Z,39.01
2019-04-21T09:25:57.425Z,39.16
2019-04-21T09:30:50.824Z,38.69
2019-04-21T09:35:58.810Z,38.42
2019-04-21T09:40:55.859Z,38.69
2019-04-21T09:45:56.770Z,38.98
2019-04-21T09:50:59.628Z,33.77
2019-04-21T09:56:05.069Z,37.91
2019-04-21T10:01:17.499Z,36.56
2019-04-21T10:06:11.169Z,33.23
2019-04-21T10:11:14.152Z,36.22
2019-04-21T10:16:26.741Z,35.05
2019-04-21T10:21:29.409Z,35.72
2019-04-21T10:26:31.733Z,31.60
2019-04-21T10:31:34.550Z,33.56
2019-04-21T10:36:37.204Z,34.05
2019-04-21T10:41:39.327Z,32.44
2019-04-21T10:46:42.519Z,33.26
2019-04-21T10:51:44.355Z,30.11
2019-04-21T10:56:47.366Z,30.55
2019-04-21T11:01:50.457Z,28.44
2019-04-21T11:06:52.795Z,28.38
2019-04-21T11:11:55.898Z,28.04
2019-04-21T11:16:58.561Z,29.40
2019-04-21T11:22:01.036Z,29.02
2019-04-21T11:27:04.534Z,31.62
2019-04-21T11:32:07.215Z,25.87
2019-04-21T11:37:12.325Z,29.07
2019-04-21T11:42:17.513Z,27.77
2019-04-21T11:47:22.634Z,25.35
2019-04-21T11:52:25.041Z,27.81
2019-04-21T11:57:30.740Z,26.04
2019-04-21T12:02:30.990Z,26.12
2019-04-21T12:07:35.308Z,28.05
2019-04-21T12:12:43.352Z,27.15
2019-04-21T12:17:47.827Z,28.34
2019-04-21T12:22:50.068Z,25.57
2019-04-21T12:27:52.143Z,26.82
2019-04-21T12:33:02.247Z,24.31
2019-04-21T12:38:04.753Z,24.50
2019-04-21T12:43:06.687Z,29.69
2019-04-21T12:48:08.522Z,26.38
2019-04-21T12:53:12.590Z,28.08
2019-04-21T12:58:15.185Z,28.28
2019-04-21T13:03:17.420Z,29.31
2019-04-21T13:08:19.754Z,28.12
2019-04-21T13:13:22.096Z,27.40
2019-04-21T13:18:23.850Z,28.83
2019-04-21T13:23:27.112Z,27.45
2019-04-21T13:28:28.809Z,28.40
2019-04-21T13:33:31.240Z,29.37
2019-04-21T13:38:40.531Z,27.91
2019-04-21T13:43:39.086Z,29.99
2019-04-21T13:48:42.372Z,32.69
2019-04-21T13:53:44.226Z,29.43
2019-04-21T13:58:46.292Z,32.65
2019-04-21T14:03:49.082Z,31.33
2019-04-21T14:08:52.545Z,31.54
2019-04-21T14:13:54.529Z,31.49
2019-04-21T14:18:57.179Z,31.49
2019-04-21T14:23:59.526Z,29.61
2019-04-21T14:29:01.652Z,31.71
2019-04-21T14:34:03.948Z,32.60
2019-04-21T14:39:10.411Z,32.16
2019-04-21T14:44:13.204Z,29.14
2019-04-21T14:49:23.643Z,29.79
2019-04-21T14:54:31.438Z,29.99
2019-04-21T14:59:33.368Z,30.83
2019-04-21T15:04:35.687Z,31.75
2019-04-21T15:09:39.653Z,28.92
2019-04-21T15:14:42.232Z,31.98
2019-04-21T15:19:50.860Z,31.24
2019-04-21T15:24:49.898Z,31.25
2019-04-21T15:29:53.006Z,32.04
2019-04-21T15:34:56.048Z,31.77
2019-04-21T15:39:58.540Z,31.42
2019-04-21T15:45:04.100Z,32.52
2019-04-21T15:50:11.921Z,32.06
2019-04-21T15:55:16.737Z,33.20
2019-04-21T16:00:38.452Z,31.27
2019-04-21T16:05:40.622Z,33.10
2019-04-21T16:10:52.644Z,33.66
2019-04-21T16:15:50.556Z,33.30
2019-04-21T16:20:53.692Z,33.49
2019-04-21T16:25:56.920Z,34.02
2019-04-21T16:30:58.787Z,34.56
2019-04-21T16:36:01.981Z,33.90
2019-04-21T16:41:07.023Z,34.03
2019-04-21T16:46:08.861Z,34.74
2019-04-21T16:51:10.751Z,34.56
2019-04-21T16:56:17.220Z,35.10
2019-04-21T17:01:29.169Z,35.60
2019-04-21T17:06:31.183Z,35.48
2019-04-21T17:11:37.240Z,35.38
2019-04-21T17:17:03.241Z,36.01
2019-04-21T17:21:41.662Z,36.02
2019-04-21T17:26:44.681Z,35.69
2019-04-21T17:31:47.753Z,37.01
2019-04-21T17:36:50.947Z,37.27
2019-04-21T17:42:05.307Z,38.58
2019-04-21T17:47:02.037Z,39.48
2019-04-21T17:52:16.273Z,39.72
2019-04-21T17:57:36.692Z,40.37
2019-04-21T18:02:41.707Z,40.11
2019-04-21T18:07:42.146Z,39.81
2019-04-21T18:12:39.808Z,38.33
2019-04-21T18:17:32.498Z,37.76
2019-04-21T18:22:47.915Z,37.02
2019-04-21T18:27:52.415Z,37.29
2019-04-21T18:32:57.035Z,37.29
2019-04-21T18:38:08.035Z,36.18
2019-04-21T18:43:45.387Z,36.13
2019-04-21T18:48:24.575Z,36.45
2019-04-21T18:53:44.815Z,35.99
2019-04-21T18:58:32.692Z,36.78
2019-04-21T19:03:41.042Z,36.61
2019-04-21T19:08:59.952Z,36.79
2019-04-21T19:14:20.955Z,36.98
2019-04-21T19:24:28.173Z,37.78
2019-04-21T19:29:24.037Z,37.12
2019-04-21T19:34:16.227Z,37.51
2019-04-21T19:39:23.299Z,38.80
2019-04-21T19:44:34.073Z,38.79
2019-04-21T19:49:43.689Z,38.68
2019-04-21T19:54:30.286Z,41.49
2019-04-21T19:59:34.628Z,41.62
2019-04-21T20:04:38.516Z,43.00
2019-04-21T20:09:50.808Z,41.90
2019-04-21T20:14:59.604Z,42.50
2019-04-21T20:19:42.348Z,42.54
2019-04-21T20:24:49.904Z,42.60
2019-04-21T20:30:08.878Z,43.23
2019-04-21T20:35:35.203Z,42.37
2019-04-21T20:40:02.161Z,43.35
2019-04-21T20:45:31.935Z,42.69
2019-04-21T20:50:22.160Z,43.39
2019-04-21T20:55:21.702Z,43.97
2019-04-21T21:00:31.800Z,44.06
2019-04-21T21:05:31.656Z,43.87
2019-04-21T21:10:38.838Z,44.63
2019-04-21T21:15:51.348Z,44.56
2019-04-21T21:20:49.779Z,45.07
2019-04-21T21:25:51.146Z,45.09
2019-04-21T21:30:55.845Z,45.58
2019-04-21T21:36:03.169Z,45.25
2019-04-21T21:40:57.223Z,44.92
2019-04-21T21:45:53.581Z,44.46
2019-04-21T21:51:04.428Z,44.72
2019-04-21T21:55:56.448Z,44.75
2019-04-21T22:01:02.662Z,45.16
2019-04-21T22:06:08.456Z,45.84
2019-04-21T22:11:07.245Z,46.66
2019-04-21T22:16:14.439Z,46.30
2019-04-21T22:21:34.668Z,47.31
2019-04-21T22:26:18.868Z,45.42
2019-04-21T22:31:25.296Z,46.68
2019-04-21T22:36:35.509Z,45.12
2019-04-21T22:41:34.402Z,45.49
2019-04-21T22:46:32.687Z,45.19
2019-04-21T22:51:38.351Z,45.03
2019-04-21T22:56:49.488Z,44.74
2019-04-21T23:01:47.446Z,44.94
2019-04-21T23:06:48.830Z,44.62
2019-04-21T23:11:52.962Z,44.45
2019-04-21T23:17:04.432Z,44.78
2019-04-21T23:22:16.147Z,44.53
2019-04-21T23:27:15.573Z,44.01
2019-04-21T23:32:19.923Z,43.44
2019-04-21T23:37:16.302Z,42.92
2019-04-21T23:42:22.543Z,43.50
2019-04-21T23:47:29.235Z,43.99
2019-04-21T23:52:21.934Z,45.96
2019-04-21T23:57:31.461Z,45.71
